Terminal Aerodrome Forecast
Issued by NWS Houston/Galveston TX

Home | Current Version | Previous Version | Text Only | Print | Product List | Glossary On
Versions: 1 2 3 4 5 6 7 8 9 10 11 12 13 14 15 16 17 18 19 20 21 22 23 24 25
000
FTUS44 KHGX 192359 CCA
TAFHOU
TAF COR
KHOU 192359Z 2000/2024 11010KT P6SM FEW035 SCT100 BKN150 OVC250
     FM200100 10007KT P6SM SCT035 SCT060 BKN120
     FM201000 09005KT P6SM BKN025 BKN090
     FM201600 12011KT P6SM VCSH BKN025 OVC080
     FM201800 12011KT P6SM VCTS BKN030CB OVC060 PROB30 2018/2019
      -TSRA OVC025CB=

USA.gov is the U.S. government's official web portal to all federal, state and local government web resources and services.